sensor_id;sensor_type;location;lat;lon;timestamp;pressure;altitude;pressure_sealevel;temperature;humidity
12775;BME280;6451;42.630;23.382;2023-05-24T00:00:23;94189.53;;;18.39;92.94
12775;BME280;6451;42.630;23.382;2023-05-24T00:02:50;94159.72;;;18.38;92.88
12775;BME280;6451;42.630;23.382;2023-05-24T00:05:17;94150.78;;;18.23;93.99
12775;BME280;6451;42.630;23.382;2023-05-24T00:07:45;94192.75;;;18.23;96.53
12775;BME280;6451;42.630;23.382;2023-05-24T00:10:13;94188.91;;;18.10;98.39
12775;BME280;6451;42.630;23.382;2023-05-24T00:12:40;94116.47;;;17.54;98.58
12775;BME280;6451;42.630;23.382;2023-05-24T00:15:08;94193.56;;;18.17;97.52
12775;BME280;6451;42.630;23.382;2023-05-24T00:17:35;94192.84;;;18.02;99.57
12775;BME280;6451;42.630;23.382;2023-05-24T00:20:07;94190.47;;;18.11;99.09
12775;BME280;6451;42.630;23.382;2023-05-24T00:22:36;94187.75;;;18.04;99.99
12775;BME280;6451;42.630;23.382;2023-05-24T00:25:04;94174.41;;;18.02;99.13
12775;BME280;6451;42.630;23.382;2023-05-24T00:27:32;94185.75;;;18.08;99.46
12775;BME280;6451;42.630;23.382;2023-05-24T00:30:01;94190.06;;;18.09;99.72
12775;BME280;6451;42.630;23.382;2023-05-24T00:32:29;94170.44;;;18.14;98.42
12775;BME280;6451;42.630;23.382;2023-05-24T00:34:56;94184.19;;;18.11;97.58
12775;BME280;6451;42.630;23.382;2023-05-24T00:37:22;94186.91;;;18.14;97.42
12775;BME280;6451;42.630;23.382;2023-05-24T00:39:50;94192.78;;;18.16;97.99
12775;BME280;6451;42.630;23.382;2023-05-24T00:42:17;94189.72;;;17.93;97.96
12775;BME280;6451;42.630;23.382;2023-05-24T00:44:45;94181.09;;;17.94;98.10
12775;BME280;6451;42.630;23.382;2023-05-24T00:47:14;94182.31;;;17.61;100.00
12775;BME280;6451;42.630;23.382;2023-05-24T00:49:43;94181.53;;;17.46;99.90
12775;BME280;6451;42.630;23.382;2023-05-24T00:52:10;94183.91;;;17.12;100.00
12775;BME280;6451;42.630;23.382;2023-05-24T00:54:37;94183.13;;;17.15;100.00
12775;BME280;6451;42.630;23.382;2023-05-24T00:57:05;94176.47;;;17.20;100.00
12775;BME280;6451;42.630;23.382;2023-05-24T00:59:32;94185.50;;;17.35;100.00
12775;BME280;6451;42.630;23.382;2023-05-24T01:02:01;94160.03;;;17.13;100.00
12775;BME280;6451;42.630;23.382;2023-05-24T01:04:28;94190.19;;;17.23;100.00
12775;BME280;6451;42.630;23.382;2023-05-24T01:07:08;94180.38;;;17.30;100.00
12775;BME280;6451;42.630;23.382;2023-05-24T01:09:46;94182.75;;;17.28;100.00
12775;BME280;6451;42.630;23.382;2023-05-24T01:12:23;94184.69;;;17.09;100.00
12775;BME280;6451;42.630;23.382;2023-05-24T01:14:59;94162.78;;;16.95;100.00
12775;BME280;6451;42.630;23.382;2023-05-24T01:17:35;93929.72;;;15.24;100.00
12775;BME280;6451;42.630;23.382;2023-05-24T01:20:08;94189.00;;;16.82;100.00
12775;BME280;6451;42.630;23.382;2023-05-24T01:22:48;94171.38;;;16.90;100.00
12775;BME280;6451;42.630;23.382;2023-05-24T01:25:27;94181.56;;;17.07;100.00
12775;BME280;6451;42.630;23.382;2023-05-24T01:27:59;94190.97;;;17.31;100.00
12775;BME280;6451;42.630;23.382;2023-05-24T01:30:29;94201.56;;;17.18;100.00
12775;BME280;6451;42.630;23.382;2023-05-24T01:32:56;94203.88;;;17.06;100.00
12775;BME280;6451;42.630;23.382;2023-05-24T01:35:23;94203.44;;;16.79;100.00
12775;BME280;6451;42.630;23.382;2023-05-24T01:37:50;94199.16;;;16.78;100.00
12775;BME280;6451;42.630;23.382;2023-05-24T01:40:17;94193.28;;;16.86;100.00
12775;BME280;6451;42.630;23.382;2023-05-24T01:42:48;94199.19;;;16.95;100.00
12775;BME280;6451;42.630;23.382;2023-05-24T01:45:27;94197.19;;;16.78;100.00
12775;BME280;6451;42.630;23.382;2023-05-24T01:48:01;94197.53;;;16.59;100.00
12775;BME280;6451;42.630;23.382;2023-05-24T01:50:31;94182.16;;;16.29;100.00
12775;BME280;6451;42.630;23.382;2023-05-24T01:53:02;94200.22;;;16.48;100.00
12775;BME280;6451;42.630;23.382;2023-05-24T01:55:31;94192.03;;;16.55;100.00
12775;BME280;6451;42.630;23.382;2023-05-24T01:58:01;94195.25;;;16.72;100.00
12775;BME280;6451;42.630;23.382;2023-05-24T02:00:30;94187.75;;;16.61;100.00
12775;BME280;6451;42.630;23.382;2023-05-24T02:03:00;94196.41;;;16.74;100.00
12775;BME280;6451;42.630;23.382;2023-05-24T02:05:30;94171.31;;;16.58;100.00
12775;BME280;6451;42.630;23.382;2023-05-24T02:07:57;94139.22;;;16.65;100.00
12775;BME280;6451;42.630;23.382;2023-05-24T02:10:24;94154.88;;;16.65;100.00
12775;BME280;6451;42.630;23.382;2023-05-24T02:12:51;94140.31;;;16.32;100.00
12775;BME280;6451;42.630;23.382;2023-05-24T02:15:18;94189.72;;;16.64;100.00
12775;BME280;6451;42.630;23.382;2023-05-24T02:17:47;94175.19;;;16.46;100.00
12775;BME280;6451;42.630;23.382;2023-05-24T02:20:14;94159.16;;;16.55;100.00
12775;BME280;6451;42.630;23.382;2023-05-24T02:22:41;94192.00;;;16.45;100.00
12775;BME280;6451;42.630;23.382;2023-05-24T02:25:08;94146.88;;;15.99;100.00
12775;BME280;6451;42.630;23.382;2023-05-24T02:27:35;94182.16;;;16.29;100.00
12775;BME280;6451;42.630;23.382;2023-05-24T02:30:03;94179.91;;;16.49;100.00
12775;BME280;6451;42.630;23.382;2023-05-24T02:32:31;94176.31;;;16.31;100.00
12775;BME280;6451;42.630;23.382;2023-05-24T02:35:00;94137.88;;;15.99;100.00
12775;BME280;6451;42.630;23.382;2023-05-24T02:37:28;94164.97;;;16.39;100.00
12775;BME280;6451;42.630;23.382;2023-05-24T02:39:57;94171.63;;;16.38;100.00
12775;BME280;6451;42.630;23.382;2023-05-24T02:42:24;94178.69;;;16.43;100.00
12775;BME280;6451;42.630;23.382;2023-05-24T02:44:51;94158.66;;;16.10;100.00
12775;BME280;6451;42.630;23.382;2023-05-24T02:47:18;94177.84;;;16.25;100.00
12775;BME280;6451;42.630;23.382;2023-05-24T02:49:45;94169.69;;;16.35;100.00
12775;BME280;6451;42.630;23.382;2023-05-24T02:52:13;94181.03;;;16.45;100.00
12775;BME280;6451;42.630;23.382;2023-05-24T02:54:40;94129.72;;;16.17;100.00
12775;BME280;6451;42.630;23.382;2023-05-24T02:57:08;94163.41;;;16.28;100.00
12775;BME280;6451;42.630;23.382;2023-05-24T02:59:37;94178.69;;;16.36;100.00
12775;BME280;6451;42.630;23.382;2023-05-24T03:02:04;94176.31;;;16.31;100.00
12775;BME280;6451;42.630;23.382;2023-05-24T03:04:31;94177.13;;;16.46;100.00
12775;BME280;6451;42.630;23.382;2023-05-24T03:06:57;94116.66;;;15.74;100.00
12775;BME280;6451;42.630;23.382;2023-05-24T03:09:27;94169.09;;;15.87;100.00
12775;BME280;6451;42.630;23.382;2023-05-24T03:11:54;94189.22;;;16.27;100.00
12775;BME280;6451;42.630;23.382;2023-05-24T03:14:21;94165.41;;;16.49;100.00
12775;BME280;6451;42.630;23.382;2023-05-24T03:16:49;94183.50;;;16.75;100.00
12775;BME280;6451;42.630;23.382;2023-05-24T03:19:16;94190.50;;;16.65;100.00
12775;BME280;6451;42.630;23.382;2023-05-24T03:21:43;94188.97;;;16.75;100.00
12775;BME280;6451;42.630;23.382;2023-05-24T03:24:10;94185.06;;;16.83;100.00
12775;BME280;6451;42.630;23.382;2023-05-24T03:26:42;94194.88;;;16.91;100.00
12775;BME280;6451;42.630;23.382;2023-05-24T03:29:09;94194.44;;;16.75;100.00
12775;BME280;6451;42.630;23.382;2023-05-24T03:31:36;94183.75;;;16.30;100.00
12775;BME280;6451;42.630;23.382;2023-05-24T03:34:03;94195.09;;;16.36;100.00
12775;BME280;6451;42.630;23.382;2023-05-24T03:36:30;94207.63;;;16.37;100.00
12775;BME280;6451;42.630;23.382;2023-05-24T03:38:57;94201.03;;;16.52;100.00
12775;BME280;6451;42.630;23.382;2023-05-24T03:41:24;94211.31;;;17.02;100.00
12775;BME280;6451;42.630;23.382;2023-05-24T03:43:53;94196.44;;;16.92;100.00
12775;BME280;6451;42.630;23.382;2023-05-24T03:46:20;94210.16;;;17.13;100.00
12775;BME280;6451;42.630;23.382;2023-05-24T03:48:48;94201.94;;;16.95;100.00
12775;BME280;6451;42.630;23.382;2023-05-24T03:51:15;94204.66;;;17.17;100.00
12775;BME280;6451;42.630;23.382;2023-05-24T03:53:42;94199.19;;;17.20;100.00
12775;BME280;6451;42.630;23.382;2023-05-24T03:56:09;94204.28;;;17.58;100.00
12775;BME280;6451;42.630;23.382;2023-05-24T03:58:36;94201.16;;;17.73;100.00
12775;BME280;6451;42.630;23.382;2023-05-24T04:01:05;94200.78;;;17.36;100.00
12775;BME280;6451;42.630;23.382;2023-05-24T04:03:32;94182.72;;;17.45;100.00
12775;BME280;6451;42.630;23.382;2023-05-24T04:05:59;94219.94;;;17.68;100.00
12775;BME280;6451;42.630;23.382;2023-05-24T04:08:27;94223.88;;;17.45;100.00
12775;BME280;6451;42.630;23.382;2023-05-24T04:10:54;94215.25;;;17.79;100.00
12775;BME280;6451;42.630;23.382;2023-05-24T04:13:21;94218.75;;;17.97;98.20
12775;BME280;6451;42.630;23.382;2023-05-24T04:15:49;94215.56;;;18.10;99.00
12775;BME280;6451;42.630;23.382;2023-05-24T04:18:17;94217.44;;;18.34;96.69
12775;BME280;6451;42.630;23.382;2023-05-24T04:20:44;94205.78;;;18.05;96.80
12775;BME280;6451;42.630;23.382;2023-05-24T04:23:12;94231.16;;;18.38;96.22
12775;BME280;6451;42.630;23.382;2023-05-24T04:25:39;94219.00;;;18.35;95.57
12775;BME280;6451;42.630;23.382;2023-05-24T04:28:06;94217.72;;;18.61;94.22
12775;BME280;6451;42.630;23.382;2023-05-24T04:30:36;94197.69;;;18.68;93.45
12775;BME280;6451;42.630;23.382;2023-05-24T04:33:03;94216.56;;;18.66;94.74
12775;BME280;6451;42.630;23.382;2023-05-24T04:35:31;94193.34;;;18.74;94.01
12775;BME280;6451;42.630;23.382;2023-05-24T04:38:01;94221.38;;;19.13;93.03
12775;BME280;6451;42.630;23.382;2023-05-24T04:40:29;94229.25;;;19.08;93.30
12775;BME280;6451;42.630;23.382;2023-05-24T04:42:55;94219.88;;;19.57;93.38
12775;BME280;6451;42.630;23.382;2023-05-24T04:45:23;94237.00;;;19.27;94.43
12775;BME280;6451;42.630;23.382;2023-05-24T04:47:50;94232.00;;;19.08;93.69
12775;BME280;6451;42.630;23.382;2023-05-24T04:50:18;94233.97;;;19.11;93.03
12775;BME280;6451;42.630;23.382;2023-05-24T04:52:46;94241.44;;;19.10;92.79
12775;BME280;6451;42.630;23.382;2023-05-24T04:55:13;94248.03;;;19.20;93.56
12775;BME280;6451;42.630;23.382;2023-05-24T04:57:40;94235.44;;;19.26;94.83
12775;BME280;6451;42.630;23.382;2023-05-24T05:00:08;94236.66;;;19.18;93.92
12775;BME280;6451;42.630;23.382;2023-05-24T05:02:35;94222.34;;;18.82;96.10
12775;BME280;6451;42.630;23.382;2023-05-24T05:05:03;94259.66;;;18.86;95.74
12775;BME280;6451;42.630;23.382;2023-05-24T05:07:31;94255.22;;;19.00;93.54
12775;BME280;6451;42.630;23.382;2023-05-24T05:09:59;94242.91;;;19.22;94.39
12775;BME280;6451;42.630;23.382;2023-05-24T05:12:27;94259.56;;;19.60;93.53
12775;BME280;6451;42.630;23.382;2023-05-24T05:14:54;94240.06;;;19.40;95.41
12775;BME280;6451;42.630;23.382;2023-05-24T05:17:22;94240.53;;;19.76;97.28
12775;BME280;6451;42.630;23.382;2023-05-24T05:19:49;94250.75;;;19.79;98.04
12775;BME280;6451;42.630;23.382;2023-05-24T05:22:16;94247.25;;;19.75;99.30
12775;BME280;6451;42.630;23.382;2023-05-24T05:24:43;94186.59;;;19.37;99.18
12775;BME280;6451;42.630;23.382;2023-05-24T05:27:12;94250.94;;;20.03;99.58
12775;BME280;6451;42.630;23.382;2023-05-24T05:29:39;94254.13;;;19.97;99.08
12775;BME280;6451;42.630;23.382;2023-05-24T05:32:06;94246.56;;;20.43;97.24
12775;BME280;6451;42.630;23.382;2023-05-24T05:34:33;94234.91;;;20.28;97.16
12775;BME280;6451;42.630;23.382;2023-05-24T05:37:00;94256.00;;;20.45;93.82
12775;BME280;6451;42.630;23.382;2023-05-24T05:39:28;94237.59;;;20.35;91.04
12775;BME280;6451;42.630;23.382;2023-05-24T05:41:56;94265.59;;;20.68;90.16
12775;BME280;6451;42.630;23.382;2023-05-24T05:44:24;94260.03;;;21.02;89.59
12775;BME280;6451;42.630;23.382;2023-05-24T05:46:51;94245.72;;;21.10;86.87
12775;BME280;6451;42.630;23.382;2023-05-24T05:49:18;94255.56;;;21.42;85.16
12775;BME280;6451;42.630;23.382;2023-05-24T05:51:46;94258.47;;;21.82;82.38
12775;BME280;6451;42.630;23.382;2023-05-24T05:54:13;94258.22;;;21.96;77.72
12775;BME280;6451;42.630;23.382;2023-05-24T05:56:43;94254.03;;;21.88;77.20
12775;BME280;6451;42.630;23.382;2023-05-24T05:59:13;94257.38;;;22.23;76.79
12775;BME280;6451;42.630;23.382;2023-05-24T06:01:42;94256.97;;;22.24;76.62
12775;BME280;6451;42.630;23.382;2023-05-24T06:04:11;94264.41;;;22.27;75.98
12775;BME280;6451;42.630;23.382;2023-05-24T06:06:38;94255.88;;;21.95;76.92
12775;BME280;6451;42.630;23.382;2023-05-24T06:09:05;94267.72;;;21.72;76.26
12775;BME280;6451;42.630;23.382;2023-05-24T06:11:33;94220.75;;;21.95;75.32
12775;BME280;6451;42.630;23.382;2023-05-24T06:14:00;94267.78;;;22.78;74.31
12775;BME280;6451;42.630;23.382;2023-05-24T06:16:27;94270.25;;;22.92;73.21
12775;BME280;6451;42.630;23.382;2023-05-24T06:18:55;94257.53;;;22.35;73.69
12775;BME280;6451;42.630;23.382;2023-05-24T06:21:22;94256.41;;;23.12;72.26
12775;BME280;6451;42.630;23.382;2023-05-24T06:23:49;94270.59;;;22.35;76.10
12775;BME280;6451;42.630;23.382;2023-05-24T06:26:17;94258.56;;;23.41;72.53
12775;BME280;6451;42.630;23.382;2023-05-24T06:28:45;94273.81;;;22.73;72.52
12775;BME280;6451;42.630;23.382;2023-05-24T06:31:12;94271.63;;;23.40;69.97
12775;BME280;6451;42.630;23.382;2023-05-24T06:33:39;94268.81;;;23.24;70.19
12775;BME280;6451;42.630;23.382;2023-05-24T06:36:08;94276.81;;;23.02;72.23
12775;BME280;6451;42.630;23.382;2023-05-24T06:38:35;94273.19;;;23.41;73.80
12775;BME280;6451;42.630;23.382;2023-05-24T06:41:02;94265.53;;;23.29;74.04
12775;BME280;6451;42.630;23.382;2023-05-24T06:43:30;94252.09;;;23.11;72.67
12775;BME280;6451;42.630;23.382;2023-05-24T06:45:58;94264.47;;;23.92;69.01
12775;BME280;6451;42.630;23.382;2023-05-24T06:48:26;94259.94;;;24.47;66.39
12775;BME280;6451;42.630;23.382;2023-05-24T06:50:54;94256.16;;;24.24;67.32
12775;BME280;6451;42.630;23.382;2023-05-24T06:53:22;94255.94;;;23.34;69.81
12775;BME280;6451;42.630;23.382;2023-05-24T06:55:50;94262.75;;;23.98;66.73
12775;BME280;6451;42.630;23.382;2023-05-24T06:58:17;94245.53;;;23.74;67.51
12775;BME280;6451;42.630;23.382;2023-05-24T07:00:44;94248.44;;;23.99;68.08
12775;BME280;6451;42.630;23.382;2023-05-24T07:03:17;94261.88;;;24.33;67.19
12775;BME280;6451;42.630;23.382;2023-05-24T07:05:44;94252.91;;;24.71;66.80
12775;BME280;6451;42.630;23.382;2023-05-24T07:08:12;94255.41;;;24.53;65.22
12775;BME280;6451;42.630;23.382;2023-05-24T07:10:40;94251.75;;;24.85;65.49
12775;BME280;6451;42.630;23.382;2023-05-24T07:13:07;94236.97;;;24.30;64.31
12775;BME280;6451;42.630;23.382;2023-05-24T07:15:39;94266.16;;;24.51;65.77
12775;BME280;6451;42.630;23.382;2023-05-24T07:18:08;94258.22;;;24.20;67.09
12775;BME280;6451;42.630;23.382;2023-05-24T07:20:35;94266.69;;;24.75;65.41
12775;BME280;6451;42.630;23.382;2023-05-24T07:23:02;94255.88;;;24.93;65.00
12775;BME280;6451;42.630;23.382;2023-05-24T07:25:31;94261.72;;;25.24;64.21
12775;BME280;6451;42.630;23.382;2023-05-24T07:28:00;94258.44;;;25.00;65.20
12775;BME280;6451;42.630;23.382;2023-05-24T07:30:27;94252.97;;;25.64;64.32
12775;BME280;6451;42.630;23.382;2023-05-24T07:32:57;94274.06;;;25.48;64.11
12775;BME280;6451;42.630;23.382;2023-05-24T07:35:24;94265.97;;;25.54;64.13
12775;BME280;6451;42.630;23.382;2023-05-24T07:37:51;94267.63;;;25.64;64.57
12775;BME280;6451;42.630;23.382;2023-05-24T07:40:18;94255.50;;;25.20;65.33
12775;BME280;6451;42.630;23.382;2023-05-24T07:42:47;94255.63;;;25.55;63.71
12775;BME280;6451;42.630;23.382;2023-05-24T07:45:15;94262.09;;;24.97;64.65
12775;BME280;6451;42.630;23.382;2023-05-24T07:47:43;94263.63;;;25.91;62.52
12775;BME280;6451;42.630;23.382;2023-05-24T07:50:10;94259.41;;;25.48;63.86
12775;BME280;6451;42.630;23.382;2023-05-24T07:52:37;94258.50;;;25.89;63.54
12775;BME280;6451;42.630;23.382;2023-05-24T07:55:05;94262.59;;;25.21;65.55
12775;BME280;6451;42.630;23.382;2023-05-24T07:57:32;94252.72;;;25.20;64.86
12775;BME280;6451;42.630;23.382;2023-05-24T07:59:59;94249.97;;;25.33;64.43
12775;BME280;6451;42.630;23.382;2023-05-24T08:02:33;94255.41;;;25.87;61.95
12775;BME280;6451;42.630;23.382;2023-05-24T08:05:01;94250.06;;;25.29;59.81
12775;BME280;6451;42.630;23.382;2023-05-24T08:07:29;94260.19;;;25.48;61.58
12775;BME280;6451;42.630;23.382;2023-05-24T08:09:56;94256.19;;;24.95;65.82
12775;BME280;6451;42.630;23.382;2023-05-24T08:12:23;94257.97;;;25.56;61.91
12775;BME280;6451;42.630;23.382;2023-05-24T08:14:50;94262.53;;;25.63;61.84
12775;BME280;6451;42.630;23.382;2023-05-24T08:17:17;94250.81;;;25.68;62.82
12775;BME280;6451;42.630;23.382;2023-05-24T08:19:46;94259.66;;;25.79;59.97
12775;BME280;6451;42.630;23.382;2023-05-24T08:22:13;94251.84;;;25.87;52.57
12775;BME280;6451;42.630;23.382;2023-05-24T08:24:40;94253.28;;;25.53;56.35
12775;BME280;6451;42.630;23.382;2023-05-24T08:27:07;94252.47;;;25.14;58.62
12775;BME280;6451;42.630;23.382;2023-05-24T08:29:34;94260.28;;;25.32;57.45
12775;BME280;6451;42.630;23.382;2023-05-24T08:32:01;94253.81;;;26.12;55.72
12775;BME280;6451;42.630;23.382;2023-05-24T08:34:28;94250.66;;;26.22;53.63
12775;BME280;6451;42.630;23.382;2023-05-24T08:36:57;94243.75;;;26.27;51.80
12775;BME280;6451;42.630;23.382;2023-05-24T08:39:24;94256.41;;;25.93;49.95
12775;BME280;6451;42.630;23.382;2023-05-24T08:41:51;94257.72;;;26.49;48.23
12775;BME280;6451;42.630;23.382;2023-05-24T08:44:18;94199.28;;;26.14;49.53
12775;BME280;6451;42.630;23.382;2023-05-24T08:46:47;94241.59;;;26.44;48.66
12775;BME280;6451;42.630;23.382;2023-05-24T08:49:16;94260.38;;;26.52;47.84
12775;BME280;6451;42.630;23.382;2023-05-24T08:51:43;94210.28;;;26.52;47.27
12775;BME280;6451;42.630;23.382;2023-05-24T08:54:12;94257.31;;;26.72;45.98
12775;BME280;6451;42.630;23.382;2023-05-24T08:56:40;94232.91;;;26.54;45.13
12775;BME280;6451;42.630;23.382;2023-05-24T08:59:07;94253.16;;;26.77;44.33
12775;BME280;6451;42.630;23.382;2023-05-24T09:01:36;94242.63;;;27.15;43.23
12775;BME280;6451;42.630;23.382;2023-05-24T09:04:06;94241.63;;;26.66;43.88
12775;BME280;6451;42.630;23.382;2023-05-24T09:06:33;94155.88;;;25.82;44.74
12775;BME280;6451;42.630;23.382;2023-05-24T09:09:02;94256.53;;;26.94;43.72
12775;BME280;6451;42.630;23.382;2023-05-24T09:11:32;94244.56;;;26.62;44.24
12775;BME280;6451;42.630;23.382;2023-05-24T09:13:59;94258.47;;;27.28;42.35
12775;BME280;6451;42.630;23.382;2023-05-24T09:16:27;94246.84;;;27.29;43.26
12775;BME280;6451;42.630;23.382;2023-05-24T09:18:55;94255.81;;;27.02;42.59
12775;BME280;6451;42.630;23.382;2023-05-24T09:21:21;94246.03;;;27.51;42.29
12775;BME280;6451;42.630;23.382;2023-05-24T09:23:50;94241.84;;;27.86;43.31
12775;BME280;6451;42.630;23.382;2023-05-24T09:26:17;94254.16;;;28.07;40.61
12775;BME280;6451;42.630;23.382;2023-05-24T09:28:46;94254.59;;;27.25;42.42
12775;BME280;6451;42.630;23.382;2023-05-24T09:31:13;94245.72;;;27.49;41.36
12775;BME280;6451;42.630;23.382;2023-05-24T09:33:42;94252.38;;;27.20;42.57
12775;BME280;6451;42.630;23.382;2023-05-24T09:36:10;94214.28;;;27.17;41.82
12775;BME280;6451;42.630;23.382;2023-05-24T09:38:36;94249.78;;;27.97;40.74
12775;BME280;6451;42.630;23.382;2023-05-24T09:41:05;94248.34;;;27.83;41.27
12775;BME280;6451;42.630;23.382;2023-05-24T09:43:33;94239.56;;;27.54;39.20
12775;BME280;6451;42.630;23.382;2023-05-24T09:46:04;94249.09;;;27.43;39.31
12775;BME280;6451;42.630;23.382;2023-05-24T09:48:31;94223.16;;;27.65;38.38
12775;BME280;6451;42.630;23.382;2023-05-24T09:51:07;94251.44;;;27.76;38.04
12775;BME280;6451;42.630;23.382;2023-05-24T09:53:36;94240.91;;;27.80;37.19
12775;BME280;6451;42.630;23.382;2023-05-24T09:56:04;94236.00;;;28.03;39.19
12775;BME280;6451;42.630;23.382;2023-05-24T09:58:31;94225.22;;;27.74;40.26
12775;BME280;6451;42.630;23.382;2023-05-24T10:01:07;94220.50;;;27.92;39.09
12775;BME280;6451;42.630;23.382;2023-05-24T10:03:36;94236.69;;;27.76;38.11
12775;BME280;6451;42.630;23.382;2023-05-24T10:06:05;94223.94;;;27.65;38.68
12775;BME280;6451;42.630;23.382;2023-05-24T10:08:33;94224.66;;;27.88;38.93
12775;BME280;6451;42.630;23.382;2023-05-24T10:11:01;94212.00;;;27.65;39.66
12775;BME280;6451;42.630;23.382;2023-05-24T10:13:31;94228.03;;;27.83;38.82
12775;BME280;6451;42.630;23.382;2023-05-24T10:16:01;94211.66;;;28.03;39.05
12775;BME280;6451;42.630;23.382;2023-05-24T10:18:30;94212.13;;;27.92;37.84
12775;BME280;6451;42.630;23.382;2023-05-24T10:20:58;94226.31;;;28.62;37.20
12775;BME280;6451;42.630;23.382;2023-05-24T10:23:29;94214.84;;;28.60;38.38
12775;BME280;6451;42.630;23.382;2023-05-24T10:26:02;94229.06;;;28.16;37.24
12775;BME280;6451;42.630;23.382;2023-05-24T10:28:31;94223.19;;;28.14;36.92
12775;BME280;6451;42.630;23.382;2023-05-24T10:31:04;94228.63;;;28.82;36.94
12775;BME280;6451;42.630;23.382;2023-05-24T10:33:36;94215.00;;;28.93;34.77
12775;BME280;6451;42.630;23.382;2023-05-24T10:36:04;94215.31;;;29.47;34.98
12775;BME280;6451;42.630;23.382;2023-05-24T10:38:33;94214.16;;;29.20;35.43
12775;BME280;6451;42.630;23.382;2023-05-24T10:41:00;94216.75;;;29.33;33.59
12775;BME280;6451;42.630;23.382;2023-05-24T10:43:28;94172.41;;;29.17;32.67
12775;BME280;6451;42.630;23.382;2023-05-24T10:45:56;94200.84;;;29.48;33.10
12775;BME280;6451;42.630;23.382;2023-05-24T10:48:39;94197.72;;;29.04;36.49
12775;BME280;6451;42.630;23.382;2023-05-24T10:51:34;94195.88;;;28.83;34.41
12775;BME280;6451;42.630;23.382;2023-05-24T10:54:16;94183.03;;;28.58;34.39
12775;BME280;6451;42.630;23.382;2023-05-24T10:56:45;94194.94;;;29.04;35.58
12775;BME280;6451;42.630;23.382;2023-05-24T10:59:29;94194.50;;;28.96;35.15
12775;BME280;6451;42.630;23.382;2023-05-24T11:01:59;94185.22;;;29.32;34.95
12775;BME280;6451;42.630;23.382;2023-05-24T11:04:32;94162.47;;;29.49;34.21
12775;BME280;6451;42.630;23.382;2023-05-24T11:07:03;94188.84;;;29.24;34.08
12775;BME280;6451;42.630;23.382;2023-05-24T11:09:32;94192.16;;;28.95;34.89
12775;BME280;6451;42.630;23.382;2023-05-24T11:12:01;94188.91;;;28.87;35.44
12775;BME280;6451;42.630;23.382;2023-05-24T11:14:34;94127.50;;;29.29;35.13
12775;BME280;6451;42.630;23.382;2023-05-24T11:17:07;94177.13;;;28.92;36.62
12775;BME280;6451;42.630;23.382;2023-05-24T11:19:37;94181.63;;;28.25;35.98
12775;BME280;6451;42.630;23.382;2023-05-24T11:22:06;94178.81;;;28.99;34.94
12775;BME280;6451;42.630;23.382;2023-05-24T11:24:33;94182.69;;;28.83;36.37
12775;BME280;6451;42.630;23.382;2023-05-24T11:27:03;94183.94;;;28.82;36.67
12775;BME280;6451;42.630;23.382;2023-05-24T11:29:31;94170.97;;;29.21;37.45
12775;BME280;6451;42.630;23.382;2023-05-24T11:31:59;94172.91;;;28.97;36.62
12775;BME280;6451;42.630;23.382;2023-05-24T11:34:29;94174.94;;;28.96;36.20
12775;BME280;6451;42.630;23.382;2023-05-24T11:36:58;94177.19;;;29.25;34.84
12775;BME280;6451;42.630;23.382;2023-05-24T11:39:30;94131.72;;;28.46;33.68
12775;BME280;6451;42.630;23.382;2023-05-24T11:41:58;94159.03;;;29.21;34.04
12775;BME280;6451;42.630;23.382;2023-05-24T11:44:33;94159.78;;;28.51;33.72
12775;BME280;6451;42.630;23.382;2023-05-24T11:47:04;94170.97;;;29.21;33.34
12775;BME280;6451;42.630;23.382;2023-05-24T11:49:33;94170.84;;;29.58;34.26
12775;BME280;6451;42.630;23.382;2023-05-24T11:52:02;94165.03;;;28.77;35.06
12775;BME280;6451;42.630;23.382;2023-05-24T11:54:29;94155.81;;;29.79;34.58
12775;BME280;6451;42.630;23.382;2023-05-24T11:56:59;94158.91;;;29.81;34.21
12775;BME280;6451;42.630;23.382;2023-05-24T11:59:27;94151.53;;;29.69;34.43
12775;BME280;6451;42.630;23.382;2023-05-24T12:01:57;94149.88;;;29.20;35.91
12775;BME280;6451;42.630;23.382;2023-05-24T12:04:25;94144.31;;;29.11;36.52
12775;BME280;6451;42.630;23.382;2023-05-24T12:06:56;94136.31;;;29.37;36.54
12775;BME280;6451;42.630;23.382;2023-05-24T12:09:25;94129.03;;;29.30;34.86
12775;BME280;6451;42.630;23.382;2023-05-24T12:11:53;94107.00;;;29.56;35.54
12775;BME280;6451;42.630;23.382;2023-05-24T12:14:23;94130.03;;;29.42;34.73
12775;BME280;6451;42.630;23.382;2023-05-24T12:16:53;94126.25;;;29.63;35.46
12775;BME280;6451;42.630;23.382;2023-05-24T12:19:22;94133.16;;;30.25;34.71
12775;BME280;6451;42.630;23.382;2023-05-24T12:21:54;94138.81;;;30.55;33.12
12775;BME280;6451;42.630;23.382;2023-05-24T12:24:24;94139.31;;;30.97;32.53
12775;BME280;6451;42.630;23.382;2023-05-24T12:26:51;94130.69;;;31.45;32.36
12775;BME280;6451;42.630;23.382;2023-05-24T12:29:23;94132.53;;;31.19;32.42
12775;BME280;6451;42.630;23.382;2023-05-24T12:31:49;94129.84;;;30.27;33.67
12775;BME280;6451;42.630;23.382;2023-05-24T12:34:19;94114.44;;;29.59;33.27
12775;BME280;6451;42.630;23.382;2023-05-24T12:36:46;94126.81;;;30.39;33.05
12775;BME280;6451;42.630;23.382;2023-05-24T12:39:17;94112.41;;;30.32;34.20
12775;BME280;6451;42.630;23.382;2023-05-24T12:41:50;94118.28;;;30.34;34.83
12775;BME280;6451;42.630;23.382;2023-05-24T12:44:22;94076.44;;;29.53;33.80
12775;BME280;6451;42.630;23.382;2023-05-24T12:46:50;94119.81;;;29.39;32.94
12775;BME280;6451;42.630;23.382;2023-05-24T12:49:18;94117.00;;;29.96;32.39
12775;BME280;6451;42.630;23.382;2023-05-24T12:51:45;94100.13;;;30.05;33.61
12775;BME280;6451;42.630;23.382;2023-05-24T12:54:14;94116.97;;;30.59;32.96
12775;BME280;6451;42.630;23.382;2023-05-24T12:56:41;94112.91;;;31.34;32.44
12775;BME280;6451;42.630;23.382;2023-05-24T12:59:09;94114.97;;;31.04;32.60
12775;BME280;6451;42.630;23.382;2023-05-24T13:01:36;94106.16;;;31.25;31.89
12775;BME280;6451;42.630;23.382;2023-05-24T13:04:03;94110.31;;;31.30;31.28